createdAt,value
2022-08-09T00:02:24.991Z,-11423.72
2022-08-09T00:06:18.309Z,-11425.69
2022-08-09T00:08:58.762Z,-11425.28
2022-08-09T00:12:05.525Z,-11434.44
2022-08-09T00:15:13.879Z,-11434.16
2022-08-09T00:18:22.631Z,-11432.19
2022-08-09T00:21:30.500Z,-11419.91
2022-08-09T00:24:36.734Z,-11427.66
2022-08-09T00:27:44.470Z,-11429.09
2022-08-09T00:30:55.869Z,-11427.38
2022-08-09T00:34:03.709Z,-11425.13
2022-08-09T00:37:10.226Z,-11429.38
2022-08-09T00:40:19.754Z,-11424.56
2022-08-09T00:44:10.022Z,-11415.53
2022-08-09T00:46:57.221Z,-11415.25
2022-08-09T00:50:14.709Z,-11404.56
2022-08-09T00:53:24.373Z,-11396.94
2022-08-09T00:56:30.964Z,-11388.47
2022-08-09T00:59:41.022Z,-11393.56
2022-08-09T01:02:59.484Z,-11392.56
2022-08-09T01:06:17.376Z,-11399.19
2022-08-09T01:09:37.266Z,-11393.00
2022-08-09T01:12:50.782Z,-11409.19
2022-08-09T01:16:02.286Z,-11402.28
2022-08-09T01:19:40.278Z,-11376.78
2022-08-09T01:24:01.930Z,-11384.25
2022-08-09T01:27:04.288Z,-11374.81
2022-08-09T01:30:35.416Z,-11376.66
2022-08-09T01:33:44.192Z,-11399.75
2022-08-09T01:36:53.558Z,-11407.78
2022-08-09T01:40:03.988Z,-11406.81
2022-08-09T01:43:13.191Z,-11405.97
2022-08-09T01:46:25.305Z,-11410.75
2022-08-09T01:49:39.153Z,-11410.19
2022-08-09T01:52:47.874Z,-11402.56
2022-08-09T01:55:58.462Z,-11398.06
2022-08-09T01:59:10.677Z,-11404.84
2022-08-09T02:02:18.505Z,-11375.38
2022-08-09T02:05:37.911Z,-11377.78
2022-08-09T02:08:58.847Z,-11380.19
2022-08-09T02:12:09.700Z,-11374.13
2022-08-09T02:15:21.935Z,-11371.72
2022-08-09T02:18:36.556Z,-11369.59
2022-08-09T02:21:48.719Z,-11391.44
2022-08-09T02:25:04.698Z,-11393.84
2022-08-09T02:28:20.524Z,-11394.13
2022-08-09T02:31:36.344Z,-11403.44
2022-08-09T02:34:51.763Z,-11400.88
2022-08-09T02:38:06.194Z,-11396.38
2022-08-09T02:41:16.833Z,-11387.34
2022-08-09T02:44:29.335Z,-11379.63
2022-08-09T02:47:57.314Z,-11380.59
2022-08-09T02:51:07.903Z,-11373.84
2022-08-09T02:54:17.027Z,-11385.94
2022-08-09T02:57:25.637Z,-11385.38
2022-08-09T03:00:33.355Z,-11380.03
2022-08-09T03:04:17.774Z,-11387.78
2022-08-09T03:07:14.274Z,-11384.69
2022-08-09T03:10:22.027Z,-11382.56
2022-08-09T03:13:43.406Z,-11371.00
2022-08-09T03:16:58.270Z,-11380.75
2022-08-09T03:20:11.643Z,-11369.31
2022-08-09T03:23:24.522Z,-11367.06
2022-08-09T03:26:32.256Z,-11389.91
2022-08-09T03:29:57.323Z,-11392.72
2022-08-09T03:33:17.503Z,-11383.69
2022-08-09T03:36:28.079Z,-11393.84
2022-08-09T03:39:37.925Z,-11389.47
2022-08-09T03:42:44.602Z,-11393.84
2022-08-09T03:46:04.855Z,-11399.06
2022-08-09T03:49:19.136Z,-11381.72
2022-08-09T03:52:31.168Z,-11392.16
2022-08-09T03:55:40.769Z,-11399.06
2022-08-09T03:58:50.228Z,-11399.63
2022-08-09T04:01:59.274Z,-11397.22
2022-08-09T04:05:21.035Z,-11397.09
2022-08-09T04:08:33.978Z,-11394.13
2022-08-09T04:11:59.925Z,-11385.09
2022-08-09T04:15:11.231Z,-11391.72
2022-08-09T04:18:21.290Z,-11396.09
2022-08-09T04:21:28.324Z,-11398.63
2022-08-09T04:24:37.518Z,-11395.25
2022-08-09T04:27:49.003Z,-11393.56
2022-08-09T04:30:55.911Z,-11394.13
2022-08-09T04:34:03.215Z,-11402.88
2022-08-09T04:37:09.752Z,-11416.66
2022-08-09T04:40:19.016Z,-11421.19
2022-08-09T04:43:27.050Z,-11423.72
2022-08-09T04:46:57.605Z,-11418.38
2022-08-09T04:49:59.876Z,-11433.88
2022-08-09T04:53:11.709Z,-11439.94
2022-08-09T04:56:21.348Z,-11443.19
2022-08-09T04:59:32.493Z,-11447.41
2022-08-09T05:02:39.928Z,-11451.91
2022-08-09T05:05:51.768Z,-11453.03
2022-08-09T05:09:00.667Z,-11456.72
2022-08-09T05:12:09.732Z,-11443.88
2022-08-09T05:15:38.320Z,-11448.66
2022-08-09T05:18:59.376Z,-11449.94
2022-08-09T05:22:06.311Z,-11451.91
2022-08-09T05:25:32.796Z,-11469.69
2022-08-09T05:28:40.759Z,-11480.97
2022-08-09T05:31:56.055Z,-11490.97
2022-08-09T05:35:02.721Z,-11490.41
2022-08-09T05:38:08.735Z,-11502.41
2022-08-09T05:41:15.153Z,-11509.88
2022-08-09T05:44:29.138Z,-11502.13
2022-08-09T05:47:51.473Z,-11505.22
2022-08-09T05:51:16.970Z,-11521.16
2022-08-09T05:54:26.019Z,-11518.63
2022-08-09T05:57:50.654Z,-11537.69
2022-08-09T06:01:00.343Z,-11541.34
2022-08-09T06:04:06.701Z,-11546.44
2022-08-09T06:07:21.346Z,-11548.41
2022-08-09T06:10:38.053Z,-11544.03
2022-08-09T06:13:44.586Z,-11551.78
2022-08-09T06:16:55.507Z,-11557.72
2022-08-09T06:20:03.594Z,-11560.13
2022-08-09T06:23:12.049Z,-11568.44
2022-08-09T06:26:28.554Z,-11579.59
2022-08-09T06:29:47.907Z,-11581.28
2022-08-09T06:33:30.614Z,-11589.06
2022-08-09T06:36:29.906Z,-11581.16
2022-08-09T06:39:48.562Z,-11588.34
2022-08-09T06:43:03.151Z,-11594.69
2022-08-09T06:46:10.983Z,-11593.84
2022-08-09T06:49:22.739Z,-11601.47
2022-08-09T06:52:48.496Z,-11601.47
2022-08-09T06:55:55.499Z,-11616.56
2022-08-09T07:00:48.977Z,-11608.53
2022-08-09T07:02:29.329Z,-11620.94
2022-08-09T07:05:53.709Z,-11629.44
2022-08-09T07:09:05.731Z,-11633.09
2022-08-09T07:12:13.749Z,-11627.16
2022-08-09T07:15:53.887Z,-11637.63
2022-08-09T07:18:51.062Z,-11652.59
2022-08-09T07:21:59.031Z,-11635.34
2022-08-09T07:25:09.845Z,-11655.41
2022-08-09T07:28:19.039Z,-11648.22
2022-08-09T07:31:25.779Z,-11665.00
2022-08-09T07:34:35.813Z,-11672.06
2022-08-09T07:37:46.165Z,-11672.22
2022-08-09T07:41:11.687Z,-11671.78
2022-08-09T07:44:24.283Z,-11681.25
2022-08-09T07:48:00.463Z,-11699.19
2022-08-09T07:52:02.513Z,-11688.72
2022-08-09T07:54:35.215Z,-11708.09
2022-08-09T07:57:46.517Z,-11696.94
2022-08-09T08:00:55.707Z,-11698.91
2022-08-09T08:04:10.427Z,-11707.38
2022-08-09T08:08:44.155Z,-11707.53
2022-08-09T08:11:03.197Z,-11718.97
2022-08-09T08:14:11.374Z,-11714.44
2022-08-09T08:17:35.089Z,-11681.81
2022-08-09T08:20:44.084Z,-11700.59
2022-08-09T08:23:55.896Z,-11708.09
2022-08-09T08:27:03.856Z,-11726.03
2022-08-09T08:30:11.509Z,-11731.97
2022-08-09T08:33:23.059Z,-11741.00
2022-08-09T08:36:30.975Z,-11731.25
2022-08-09T08:39:39.936Z,-11731.13
2022-08-09T08:42:51.931Z,-11729.41
2022-08-09T08:46:24.959Z,-11744.69
2022-08-09T08:49:46.337Z,-11768.00
2022-08-09T08:52:59.185Z,-11751.47
2022-08-09T08:56:06.804Z,-11748.22
2022-08-09T08:59:19.166Z,-11749.47
2022-08-09T09:02:30.942Z,-11771.66
2022-08-09T09:06:01.063Z,-11756.69
2022-08-09T09:09:06.881Z,-11767.00
2022-08-09T09:12:33.984Z,-11764.31
2022-08-09T09:15:41.970Z,-11770.94
2022-08-09T09:19:10.771Z,-11758.25
2022-08-09T09:22:26.914Z,-11744.97
2022-08-09T09:26:03.591Z,-11755.28
2022-08-09T09:29:11.281Z,-11737.03
2022-08-09T09:32:34.743Z,-11716.72
2022-08-09T09:36:02.002Z,-11714.16
2022-08-09T09:39:11.852Z,-11718.69
2022-08-09T09:42:25.734Z,-11709.63
2022-08-09T09:49:32.049Z,-11748.34
2022-08-09T09:52:56.913Z,-11756.69
2022-08-09T09:56:05.394Z,-11762.91
2022-08-09T09:59:13.401Z,-11770.25
2022-08-09T10:02:26.537Z,-11782.81
2022-08-09T10:06:03.910Z,-11781.41
2022-08-09T10:09:03.188Z,-11755.84
2022-08-09T10:12:31.406Z,-11734.66
2022-08-09T10:16:09.436Z,-11746.94
2022-08-09T10:19:16.084Z,-11743.25
2022-08-09T10:22:33.527Z,-11778.88
2022-08-09T10:26:04.267Z,-11787.91
2022-08-09T10:29:37.558Z,-11792.28
2022-08-09T10:32:50.550Z,-11756.25
2022-08-09T10:36:00.845Z,-11743.97
2022-08-09T10:39:15.960Z,-11733.66
2022-08-09T10:42:31.764Z,-11734.22
2022-08-09T10:45:58.524Z,-11768.97
2022-08-09T10:49:15.254Z,-11780.84
2022-08-09T10:52:44.749Z,-11777.16
2022-08-09T10:56:15.937Z,-11775.75
2022-08-09T10:59:43.058Z,-11791.88
2022-08-09T11:03:11.489Z,-11771.81
2022-08-09T11:06:26.311Z,-11749.06
2022-08-09T11:09:51.253Z,-11739.59
2022-08-09T11:13:50.995Z,-11729.28
2022-08-09T11:16:48.143Z,-11721.38
2022-08-09T11:20:10.216Z,-11729.69
2022-08-09T11:23:30.181Z,-11779.16
2022-08-09T11:26:47.225Z,-11789.88
2022-08-09T11:30:04.599Z,-11757.38
2022-08-09T11:33:32.968Z,-11739.59
2022-08-09T11:36:44.262Z,-11741.28
2022-08-09T11:40:04.332Z,-11732.09
2022-08-09T11:43:10.780Z,-11731.41
2022-08-09T11:46:32.743Z,-11730.53
2022-08-09T11:50:55.104Z,-11724.34
2022-08-09T11:53:57.620Z,-11744.69
2022-08-09T11:56:54.309Z,-11754.56
2022-08-09T12:00:11.925Z,-11775.06
2022-08-09T12:03:55.807Z,-11790.59
2022-08-09T12:06:55.536Z,-11771.53
2022-08-09T12:10:02.956Z,-11787.91
2022-08-09T12:14:08.167Z,-11763.59
2022-08-09T12:16:40.001Z,-11791.72
2022-08-09T12:19:50.799Z,-11775.75
2022-08-09T12:22:59.032Z,-11771.25
2022-08-09T12:26:05.672Z,-11791.88
2022-08-09T12:29:32.855Z,-11776.88
2022-08-09T12:32:41.009Z,-11774.78
2022-08-09T12:35:50.585Z,-11754.00
2022-08-09T12:38:56.707Z,-11745.66
2022-08-09T12:42:08.453Z,-11735.34
2022-08-09T12:45:33.821Z,-11731.81
2022-08-09T12:48:41.305Z,-11733.94
2022-08-09T12:52:01.069Z,-11736.47
2022-08-09T12:56:15.479Z,-11755.84
2022-08-09T12:58:42.671Z,-11760.22
2022-08-09T13:02:02.206Z,-11755.41
2022-08-09T13:05:10.085Z,-11753.44
2022-08-09T13:08:21.238Z,-11777.44
2022-08-09T13:11:48.895Z,-11797.38
2022-08-09T13:15:07.462Z,-11799.78
2022-08-09T13:18:17.431Z,-11805.72
2022-08-09T13:22:35.318Z,-11794.97
2022-08-09T13:25:03.527Z,-11787.06
2022-08-09T13:28:24.589Z,-11796.81
2022-08-09T13:32:15.870Z,-11802.59
2022-08-09T13:35:34.823Z,-11794.97
2022-08-09T13:38:59.120Z,-11824.94
2022-08-09T13:42:12.952Z,-11831.00
2022-08-09T13:45:20.025Z,-11841.59
2022-08-09T13:48:26.609Z,-11810.53
2022-08-09T13:51:36.371Z,-11830.88
2022-08-09T13:54:58.924Z,-11824.50
2022-08-09T13:58:11.911Z,-11800.91
2022-08-09T14:01:56.492Z,-11798.66
2022-08-09T14:04:59.696Z,-11821.81
2022-08-09T14:08:07.474Z,-11813.06
2022-08-09T14:11:17.777Z,-11823.81
2022-08-09T14:14:29.867Z,-11832.56
2022-08-09T14:18:06.464Z,-11823.09
2022-08-09T14:21:05.975Z,-11834.97
2022-08-09T14:24:21.933Z,-11803.31
2022-08-09T14:27:58.745Z,-11806.56
2022-08-09T14:31:06.498Z,-11804.16
2022-08-09T14:34:12.935Z,-11801.75
2022-08-09T14:37:28.565Z,-11775.63
2022-08-09T14:41:04.237Z,-11791.03
2022-08-09T14:44:13.990Z,-11778.03
2022-08-09T14:47:39.856Z,-11775.06
2022-08-09T14:50:49.327Z,-11807.13
2022-08-09T14:53:56.786Z,-11796.66
2022-08-09T14:57:02.921Z,-11779.28
2022-08-09T15:00:11.075Z,-11761.63
2022-08-09T15:03:21.017Z,-11770.66
2022-08-09T15:06:28.187Z,-11784.09
2022-08-09T15:10:07.481Z,-11786.34
2022-08-09T15:13:04.101Z,-11772.78
2022-08-09T15:16:11.268Z,-11770.09
2022-08-09T15:19:20.030Z,-11751.19
2022-08-09T15:22:26.542Z,-11739.03
2022-08-09T15:25:41.067Z,-11728.28
2022-08-09T15:28:54.694Z,-11724.34
2022-08-09T15:32:01.444Z,-11715.00
2022-08-09T15:35:18.210Z,-11709.63
2022-08-09T15:38:36.804Z,-11705.81
2022-08-09T15:41:47.094Z,-11705.81
2022-08-09T15:44:58.469Z,-11701.44
2022-08-09T15:48:28.522Z,-11691.28
2022-08-09T15:52:02.207Z,-11692.97
2022-08-09T15:55:01.219Z,-11691.13
2022-08-09T15:58:07.537Z,-11690.16
2022-08-09T16:01:35.407Z,-11687.59
2022-08-09T16:04:42.773Z,-11681.09
2022-08-09T16:07:51.178Z,-11681.09
2022-08-09T16:10:57.446Z,-11679.69
2022-08-09T16:14:08.135Z,-11682.53
2022-08-09T16:17:17.201Z,-11684.78
2022-08-09T16:20:27.607Z,-11691.00
2022-08-09T16:23:38.081Z,-11682.38
2022-08-09T16:26:48.919Z,-11684.78
2022-08-09T16:29:58.603Z,-11680.97
2022-08-09T16:33:10.108Z,-11682.94
2022-08-09T16:36:18.477Z,-11684.22
2022-08-09T16:39:26.340Z,-11678.56
2022-08-09T16:42:32.897Z,-11677.72
2022-08-09T16:45:43.774Z,-11679.97
2022-08-09T16:48:55.933Z,-11686.75
2022-08-09T16:52:08.053Z,-11675.59
2022-08-09T16:55:18.363Z,-11673.19
2022-08-09T16:58:25.049Z,-11674.47
2022-08-09T17:01:34.062Z,-11673.75
2022-08-09T17:04:42.828Z,-11660.50
2022-08-09T17:08:45.871Z,-11654.84
2022-08-09T17:11:19.456Z,-11653.28
2022-08-09T17:14:39.272Z,-11654.41
2022-08-09T17:18:00.434Z,-11646.66
2022-08-09T17:21:07.205Z,-11638.19
2022-08-09T17:24:28.218Z,-11631.69
2022-08-09T17:27:49.354Z,-11631.53
2022-08-09T17:31:00.751Z,-11613.63
2022-08-09T17:35:00.850Z,-11605.72
2022-08-09T17:38:11.838Z,-11598.66
2022-08-09T17:41:02.172Z,-11598.38
2022-08-09T17:44:42.472Z,-11605.28
2022-08-09T17:47:49.411Z,-11579.88
2022-08-09T17:50:59.548Z,-11581.56
2022-08-09T17:54:16.755Z,-11573.25
2022-08-09T17:58:03.836Z,-11569.28
2022-08-09T18:00:54.965Z,-11579.44
2022-08-09T18:04:03.150Z,-11570.97
2022-08-09T18:07:09.551Z,-11578.31
2022-08-09T18:10:31.114Z,-11579.72
2022-08-09T18:13:58.806Z,-11577.75
2022-08-09T18:17:06.787Z,-11577.47
2022-08-09T18:21:00.343Z,-11571.56
2022-08-09T18:24:10.418Z,-11562.78
2022-08-09T18:27:10.208Z,-11562.50
2022-08-09T18:30:40.181Z,-11550.53
2022-08-09T18:33:53.569Z,-11552.06
2022-08-09T18:37:00.288Z,-11550.25
2022-08-09T18:40:08.243Z,-11554.06
2022-08-09T18:43:15.933Z,-11547.84
2022-08-09T18:46:47.133Z,-11549.97
2022-08-09T18:49:49.740Z,-11550.09
2022-08-09T18:52:58.723Z,-11542.47
2022-08-09T18:56:06.171Z,-11537.53
2022-08-09T18:59:12.364Z,-11537.97
2022-08-09T19:02:19.690Z,-11536.28
2022-08-09T19:05:49.097Z,-11530.75
2022-08-09T19:08:55.367Z,-11532.59
2022-08-09T19:12:09.762Z,-11526.25
2022-08-09T19:15:17.058Z,-11542.75
2022-08-09T19:18:33.429Z,-11534.56
2022-08-09T19:21:51.800Z,-11533.44
2022-08-09T19:25:09.818Z,-11531.75
2022-08-09T19:28:28.575Z,-11531.47
2022-08-09T19:31:45.872Z,-11536.28
2022-08-09T19:34:53.950Z,-11530.19
2022-08-09T19:38:02.209Z,-11531.19
2022-08-09T19:41:08.595Z,-11531.31
2022-08-09T19:44:14.857Z,-11531.47
2022-08-09T19:47:27.026Z,-11527.81
2022-08-09T19:50:50.877Z,-11533.72
2022-08-09T19:54:01.992Z,-11527.94
2022-08-09T19:57:10.198Z,-11532.19
2022-08-09T20:00:17.559Z,-11529.22
2022-08-09T20:04:18.484Z,-11519.63
2022-08-09T20:06:50.707Z,-11516.22
2022-08-09T20:09:58.306Z,-11521.44
2022-08-09T20:13:15.492Z,-11518.78
2022-08-09T20:16:36.709Z,-11519.06
2022-08-09T20:19:53.807Z,-11519.06
2022-08-09T20:23:00.689Z,-11515.53
2022-08-09T20:26:13.165Z,-11513.56
2022-08-09T20:29:21.987Z,-11511.56
2022-08-09T20:32:33.836Z,-11507.50
2022-08-09T20:35:40.791Z,-11481.53
2022-08-09T20:39:28.486Z,-11477.31
2022-08-09T20:42:19.521Z,-11479.56
2022-08-09T20:45:59.419Z,-11481.66
2022-08-09T20:48:52.167Z,-11485.06
2022-08-09T20:51:58.326Z,-11490.56
2022-08-09T20:55:08.457Z,-11493.38
2022-08-09T20:58:20.238Z,-11497.75
2022-08-09T21:01:35.221Z,-11494.78
2022-08-09T21:05:52.070Z,-11490.41
2022-08-09T21:08:20.246Z,-11489.72
2022-08-09T21:14:54.574Z,-11485.63
2022-08-09T21:18:23.812Z,-11451.22
2022-08-09T21:21:52.983Z,-11446.00
2022-08-09T21:25:14.005Z,-11445.28
2022-08-09T21:28:20.848Z,-11457.69
2022-08-09T21:31:49.103Z,-11449.09
2022-08-09T21:34:56.855Z,-11448.09
2022-08-09T21:38:03.314Z,-11452.47
2022-08-09T21:41:10.117Z,-11442.19
2022-08-09T21:44:34.045Z,-11451.91
2022-08-09T21:47:43.887Z,-11454.75
2022-08-09T21:50:56.911Z,-11461.22
2022-08-09T21:54:03.283Z,-11458.97
2022-08-09T21:57:37.534Z,-11459.13
2022-08-09T22:00:37.212Z,-11454.19
2022-08-09T22:03:58.964Z,-11452.19
2022-08-09T22:07:06.704Z,-11452.63
2022-08-09T22:10:15.063Z,-11451.22
2022-08-09T22:13:31.389Z,-11447.25
2022-08-09T22:16:40.551Z,-11416.09
2022-08-09T22:19:58.492Z,-11406.81
2022-08-09T22:23:10.600Z,-11409.91
2022-08-09T22:26:33.910Z,-11429.09
2022-08-09T22:29:48.456Z,-11435.41
2022-08-09T22:32:56.028Z,-11425.28
2022-08-09T22:36:05.939Z,-11420.75
2022-08-09T22:39:46.689Z,-11412.44
2022-08-09T22:42:42.358Z,-11406.81
2022-08-09T22:48:10.308Z,-11404.28
2022-08-09T22:49:15.584Z,-11426.25
2022-08-09T22:52:23.282Z,-11423.88
2022-08-09T22:56:05.824Z,-11401.31
2022-08-09T22:58:57.271Z,-11393.28
2022-08-09T23:02:03.462Z,-11417.38
2022-08-09T23:05:10.129Z,-11413.16
2022-08-09T23:08:35.123Z,-11411.88
2022-08-09T23:11:41.659Z,-11404.00
2022-08-09T23:14:47.694Z,-11411.75
2022-08-09T23:18:00.283Z,-11407.94
2022-08-09T23:21:06.639Z,-11372.84
2022-08-09T23:24:14.302Z,-11367.06
2022-08-09T23:27:20.547Z,-11383.69
2022-08-09T23:30:26.798Z,-11363.41
2022-08-09T23:33:33.187Z,-11367.78
2022-08-09T23:36:39.609Z,-11380.31
2022-08-09T23:39:47.448Z,-11379.75
2022-08-09T23:42:54.079Z,-11382.28
2022-08-09T23:46:00.710Z,-11398.91
2022-08-09T23:49:07.157Z,-11412.31
2022-08-09T23:52:13.308Z,-11410.19
2022-08-09T23:55:24.139Z,-11416.53
2022-08-09T23:58:32.056Z,-11418.66
